Time;durP1;ratioP1;P1;durP2;ratioP2;P2;SDS_P1;SDS_P2;PMS_P1;PMS_P2;Temp;Humidity;BMP_temperature;BMP_pressure;BME280_temperature;BME280_humidity;BME280_pressure;Samples;Min_cycle;Max_cycle;Signal;HPM_P1;HPM_P2
2023/06/02 00:01:36;;;;;;;4.17;3.77;;;15.60;99.90;;;;;;5036131;28;20460;-80
2023/06/02 00:04:03;;;;;;;5.33;4.57;;;15.60;99.90;;;;;;5044314;28;20446;-81
2023/06/02 00:06:34;;;;;;;3.13;2.93;;;15.50;99.90;;;;;;5038646;28;20462;-80
2023/06/02 00:09:04;;;;;;;4.37;3.97;;;15.40;99.90;;;;;;5039218;28;20488;-80
2023/06/02 00:11:34;;;;;;;5.53;4.40;;;15.30;99.90;;;;;;5035242;28;20556;-80
2023/06/02 00:14:03;;;;;;;4.73;4.27;;;15.40;99.90;;;;;;5040762;28;20454;-80
2023/06/02 00:16:31;;;;;;;5.07;4.70;;;15.30;99.90;;;;;;5037829;28;20940;-80
2023/06/02 00:18:58;;;;;;;3.67;3.47;;;15.20;99.90;;;;;;5044562;28;20513;-83
2023/06/02 00:21:26;;;;;;;4.40;4.00;;;15.10;99.90;;;;;;5046873;28;20464;-79
2023/06/02 00:23:53;;;;;;;4.20;3.80;;;15.10;99.90;;;;;;5042679;28;21128;-81
2023/06/02 00:26:20;;;;;;;4.30;4.00;;;15.10;99.90;;;;;;5040868;28;20470;-82
2023/06/02 00:28:47;;;;;;;7.03;4.37;;;15.00;99.90;;;;;;5035890;28;20806;-81
2023/06/02 00:31:17;;;;;;;4.13;3.73;;;15.00;99.90;;;;;;5040131;28;20470;-81
2023/06/02 00:33:44;;;;;;;5.23;4.73;;;15.10;99.90;;;;;;5043737;28;20499;-81
2023/06/02 00:36:11;;;;;;;4.80;4.40;;;15.10;99.90;;;;;;5036677;28;20878;-80
2023/06/02 00:38:39;;;;;;;4.53;4.20;;;15.00;99.90;;;;;;5043114;28;20457;-82
2023/06/02 00:41:06;;;;;;;4.20;3.90;;;14.90;99.90;;;;;;5042174;28;20460;-83
2023/06/02 00:43:33;;;;;;;3.73;3.43;;;14.80;99.90;;;;;;5045053;28;20503;-81
2023/06/02 00:46:00;;;;;;;4.77;4.37;;;14.60;99.90;;;;;;5045798;28;20469;-80
2023/06/02 00:48:29;;;;;;;4.90;4.50;;;14.60;99.90;;;;;;5043648;28;20539;-80
2023/06/02 00:50:56;;;;;;;5.10;4.60;;;14.60;99.90;;;;;;5044124;28;20477;-80
2023/06/02 00:53:23;;;;;;;4.23;3.90;;;14.50;99.90;;;;;;5041147;28;20473;-80
2023/06/02 00:55:52;;;;;;;4.60;4.20;;;14.40;99.90;;;;;;5033757;28;20435;-80
2023/06/02 00:58:21;;;;;;;5.90;4.10;;;14.40;99.90;;;;;;5038364;28;20453;-82
2023/06/02 01:00:48;;;;;;;4.70;4.30;;;14.50;99.90;;;;;;5041709;28;20932;-81
2023/06/02 01:03:15;;;;;;;4.30;3.90;;;14.50;99.90;;;;;;5041763;28;20497;-82
2023/06/02 01:05:48;;;;;;;4.63;4.27;;;14.40;99.90;;;;;;5036812;28;20990;-81
2023/06/02 01:08:17;;;;;;;5.70;4.43;;;14.40;99.90;;;;;;5039945;28;20457;-80
2023/06/02 01:10:44;;;;;;;5.90;5.40;;;14.40;99.90;;;;;;5027289;28;20830;-80
2023/06/02 01:13:12;;;;;;;7.50;4.87;;;14.40;99.90;;;;;;5038307;28;20530;-81
2023/06/02 01:15:39;;;;;;;4.40;4.00;;;14.30;99.90;;;;;;5039970;28;20519;-82
2023/06/02 01:18:09;;;;;;;5.33;4.37;;;14.20;99.90;;;;;;5042516;28;20928;-82
2023/06/02 01:20:44;;;;;;;4.53;4.13;;;14.20;99.90;;;;;;5042427;28;20448;-82
2023/06/02 01:23:17;;;;;;;4.57;4.17;;;14.20;99.90;;;;;;5043701;28;20476;-81
2023/06/02 01:25:46;;;;;;;5.50;5.00;;;14.20;99.90;;;;;;5040210;28;20457;-80
2023/06/02 01:28:14;;;;;;;4.60;4.20;;;14.20;99.90;;;;;;5041587;28;20477;-82
2023/06/02 01:30:41;;;;;;;4.53;4.20;;;14.10;99.90;;;;;;5037474;28;20480;-82
2023/06/02 01:33:16;;;;;;;4.60;4.20;;;14.00;99.90;;;;;;5032390;28;20512;-80
2023/06/02 01:35:46;;;;;;;4.70;4.40;;;14.00;99.90;;;;;;5033832;28;20959;-79
2023/06/02 01:38:15;;;;;;;5.40;4.67;;;14.00;99.90;;;;;;5033740;28;20466;-79
2023/06/02 01:40:43;;;;;;;4.80;4.40;;;14.00;99.90;;;;;;5042021;28;20456;-79
2023/06/02 01:43:12;;;;;;;4.70;4.30;;;14.00;99.90;;;;;;5036091;28;20456;-81
2023/06/02 01:45:42;;;;;;;4.80;4.50;;;14.00;99.90;;;;;;5038367;28;20957;-82
2023/06/02 01:48:10;;;;;;;10.23;5.00;;;14.00;99.90;;;;;;5033283;28;20995;-80
2023/06/02 01:50:38;;;;;;;5.00;4.60;;;14.00;99.90;;;;;;5034580;28;20481;-79
2023/06/02 01:53:05;;;;;;;5.07;4.03;;;14.00;99.90;;;;;;5040961;28;20479;-82
2023/06/02 01:55:33;;;;;;;4.47;4.07;;;13.90;99.90;;;;;;5039025;28;20497;-81
2023/06/02 01:58:00;;;;;;;5.27;4.87;;;14.00;99.90;;;;;;5041689;28;20448;-80
2023/06/02 02:00:28;;;;;;;6.27;5.67;;;14.00;99.90;;;;;;5043243;28;20515;-80
2023/06/02 02:02:56;;;;;;;5.17;4.77;;;14.00;99.90;;;;;;5044481;28;20460;-80
2023/06/02 02:05:22;;;;;;;7.80;4.40;;;14.00;99.90;;;;;;5038960;28;20530;-82
2023/06/02 02:07:50;;;;;;;5.03;4.53;;;14.00;99.90;;;;;;5040990;28;20486;-80
2023/06/02 02:10:18;;;;;;;4.73;4.03;;;14.00;99.90;;;;;;5038570;28;20560;-82
2023/06/02 02:12:45;;;;;;;4.13;3.73;;;13.90;99.90;;;;;;5044112;28;20493;-80
2023/06/02 02:15:12;;;;;;;6.03;4.57;;;13.90;99.90;;;;;;5048303;28;20507;-81
2023/06/02 02:17:45;;;;;;;4.27;3.87;;;13.80;99.90;;;;;;5049009;28;20476;-81
2023/06/02 02:20:13;;;;;;;4.47;4.07;;;13.80;99.90;;;;;;5049103;28;20499;-80
2023/06/02 02:22:40;;;;;;;4.80;4.40;;;13.90;99.90;;;;;;5045756;28;20463;-80
2023/06/02 02:25:08;;;;;;;4.90;4.50;;;14.00;99.90;;;;;;5047231;28;20445;-81
2023/06/02 02:27:36;;;;;;;5.47;5.07;;;13.90;99.90;;;;;;5048089;28;20469;-81
2023/06/02 02:30:04;;;;;;;5.00;4.60;;;13.80;99.90;;;;;;5049343;28;20480;-81
2023/06/02 02:32:33;;;;;;;4.90;4.50;;;13.80;99.90;;;;;;5045404;28;20543;-81
2023/06/02 02:35:01;;;;;;;6.30;5.70;;;13.80;99.90;;;;;;5042164;28;20449;-80
2023/06/02 02:37:28;;;;;;;5.77;5.37;;;13.80;99.90;;;;;;5048272;28;20524;-82
2023/06/02 02:39:55;;;;;;;6.87;6.27;;;13.80;99.90;;;;;;5034521;28;20466;-81
2023/06/02 02:42:23;;;;;;;6.07;5.47;;;13.80;99.90;;;;;;5048508;28;20453;-82
2023/06/02 02:44:50;;;;;;;5.30;4.87;;;13.80;99.90;;;;;;5046892;28;20520;-80
2023/06/02 02:47:17;;;;;;;8.13;6.10;;;13.80;99.90;;;;;;5041843;28;21203;-82
2023/06/02 02:49:43;;;;;;;6.30;5.70;;;13.70;99.90;;;;;;5047529;28;20522;-80
2023/06/02 02:52:12;;;;;;;5.90;5.40;;;13.70;99.90;;;;;;5039451;28;20476;-79
2023/06/02 02:54:39;;;;;;;6.53;5.83;;;13.60;99.90;;;;;;5046907;28;20479;-80
2023/06/02 02:57:08;;;;;;;6.40;5.80;;;13.50;99.90;;;;;;5035047;28;20871;-80
2023/06/02 02:59:35;;;;;;;6.63;5.63;;;13.40;99.90;;;;;;5042430;28;20944;-81
2023/06/02 03:02:03;;;;;;;6.80;5.00;;;13.30;99.90;;;;;;5037721;28;20500;-80
2023/06/02 03:04:31;;;;;;;6.27;5.50;;;13.20;99.90;;;;;;5045137;28;20437;-80
2023/06/02 03:06:59;;;;;;;6.27;5.63;;;13.10;99.90;;;;;;5043665;28;20460;-81
2023/06/02 03:09:27;;;;;;;7.30;6.47;;;13.10;99.90;;;;;;5043034;28;20465;-80
2023/06/02 03:11:54;;;;;;;6.40;5.80;;;13.10;99.90;;;;;;5046485;28;20473;-81
2023/06/02 03:14:22;;;;;;;6.20;5.60;;;13.20;99.90;;;;;;5044356;28;20441;-80
2023/06/02 03:16:50;;;;;;;5.30;4.90;;;13.10;99.90;;;;;;5047579;28;20532;-80
2023/06/02 03:19:17;;;;;;;7.03;6.47;;;13.10;99.90;;;;;;5047967;28;20453;-82
2023/06/02 03:21:44;;;;;;;7.40;6.70;;;13.00;99.90;;;;;;5043042;28;20865;-81
2023/06/02 03:24:12;;;;;;;5.50;5.10;;;13.00;99.90;;;;;;5035444;28;20444;-80
2023/06/02 03:26:41;;;;;;;6.53;5.30;;;13.10;99.90;;;;;;5046018;28;20445;-82
2023/06/02 03:29:08;;;;;;;6.40;5.80;;;13.10;99.90;;;;;;5038332;28;20477;-82
2023/06/02 03:31:36;;;;;;;6.83;6.13;;;13.00;99.90;;;;;;5041776;28;20535;-81
2023/06/02 03:34:03;;;;;;;5.47;4.93;;;13.00;99.90;;;;;;5048111;28;20519;-82
2023/06/02 03:36:35;;;;;;;6.67;6.07;;;12.90;99.90;;;;;;5040024;28;20469;-80
2023/06/02 03:39:04;;;;;;;5.27;4.67;;;12.90;99.90;;;;;;5046089;28;20526;-79
2023/06/02 03:41:31;;;;;;;7.70;5.43;;;13.00;99.90;;;;;;5037876;28;20473;-82
2023/06/02 03:43:59;;;;;;;6.10;5.60;;;12.90;99.90;;;;;;5044325;28;20462;-81
2023/06/02 03:46:26;;;;;;;7.03;6.43;;;13.00;99.90;;;;;;5037168;28;20501;-82
2023/06/02 03:48:53;;;;;;;6.47;5.97;;;13.00;99.90;;;;;;5042033;28;20550;-81
2023/06/02 03:51:20;;;;;;;7.23;6.60;;;13.00;99.90;;;;;;5043751;28;20846;-82
2023/06/02 03:53:49;;;;;;;5.63;5.23;;;13.00;99.90;;;;;;5045185;28;20492;-79
2023/06/02 03:56:16;;;;;;;7.93;6.43;;;13.10;99.90;;;;;;5043317;28;20447;-82
2023/06/02 03:58:43;;;;;;;9.43;6.03;;;13.30;99.90;;;;;;5040137;28;20488;-79
2023/06/02 04:01:12;;;;;;;7.63;6.93;;;13.30;99.90;;;;;;5043599;28;21145;-81
2023/06/02 04:03:41;;;;;;;6.83;6.20;;;13.50;99.90;;;;;;5046666;28;20472;-79
2023/06/02 04:06:08;;;;;;;6.27;5.80;;;13.60;99.90;;;;;;5040567;28;20469;-81
2023/06/02 04:08:36;;;;;;;6.17;5.60;;;13.70;99.90;;;;;;5041469;28;20487;-81
2023/06/02 04:11:03;;;;;;;6.40;5.90;;;13.80;99.90;;;;;;5049174;28;20479;-82
2023/06/02 04:13:30;;;;;;;7.70;7.00;;;14.00;99.90;;;;;;5034666;28;20457;-81
2023/06/02 04:15:57;;;;;;;7.37;6.63;;;14.10;99.90;;;;;;5045594;28;20952;-80
2023/06/02 04:18:26;;;;;;;7.00;6.33;;;14.20;99.90;;;;;;5043161;28;21500;-80
2023/06/02 04:20:52;;;;;;;8.97;6.50;;;14.20;99.90;;;;;;5042147;28;20959;-82
2023/06/02 04:23:19;;;;;;;5.50;5.10;;;14.20;99.90;;;;;;5033856;28;20476;-80
2023/06/02 04:25:46;;;;;;;7.00;6.50;;;14.20;99.90;;;;;;5043182;28;20921;-80
2023/06/02 04:28:13;;;;;;;6.77;6.13;;;14.10;99.90;;;;;;5042344;28;20492;-82
2023/06/02 04:30:40;;;;;;;6.30;5.73;;;14.20;99.90;;;;;;5040561;28;20477;-81
2023/06/02 04:33:08;;;;;;;6.50;5.97;;;14.40;99.90;;;;;;5045822;28;20445;-81
2023/06/02 04:35:36;;;;;;;6.53;4.97;;;14.60;99.90;;;;;;5046649;28;20445;-82
2023/06/02 04:38:04;;;;;;;5.13;4.73;;;14.70;99.90;;;;;;5043215;28;20462;-82
2023/06/02 04:40:31;;;;;;;5.90;5.50;;;14.90;99.90;;;;;;5046577;28;20452;-82
2023/06/02 04:42:58;;;;;;;7.17;6.47;;;14.90;99.90;;;;;;5036820;28;20440;-81
2023/06/02 04:45:26;;;;;;;5.47;5.07;;;15.00;99.90;;;;;;5040200;28;20964;-80
2023/06/02 04:47:52;;;;;;;5.40;5.00;;;15.10;99.90;;;;;;5045256;28;20456;-83
2023/06/02 04:50:19;;;;;;;14.80;5.37;;;15.30;99.90;;;;;;5027778;28;20508;-82
2023/06/02 04:52:48;;;;;;;7.10;5.00;;;15.50;99.90;;;;;;5038208;28;20536;-79
2023/06/02 04:55:15;;;;;;;6.00;5.50;;;15.50;99.90;;;;;;5041211;28;20460;-81
2023/06/02 04:57:42;;;;;;;7.23;5.90;;;15.70;99.90;;;;;;5039078;28;20477;-81
2023/06/02 05:00:11;;;;;;;6.07;5.30;;;15.80;99.90;;;;;;5039466;28;20490;-81
2023/06/02 05:02:38;;;;;;;5.30;4.90;;;15.80;99.90;;;;;;5037582;28;20538;-82
2023/06/02 05:05:07;;;;;;;5.93;5.40;;;15.80;99.90;;;;;;5043389;28;20547;-81
2023/06/02 05:07:33;;;;;;;7.43;5.77;;;16.00;99.90;;;;;;5045099;28;20457;-81
2023/06/02 05:10:02;;;;;;;6.07;5.50;;;16.00;99.90;;;;;;5033406;28;20971;-80
2023/06/02 05:12:29;;;;;;;5.43;5.00;;;16.00;99.90;;;;;;5046056;28;20542;-81
2023/06/02 05:14:56;;;;;;;5.87;5.27;;;16.10;99.90;;;;;;5039552;28;20445;-81
2023/06/02 05:17:27;;;;;;;6.10;5.20;;;16.20;99.90;;;;;;5040381;28;21220;-83
2023/06/02 05:19:54;;;;;;;6.33;4.97;;;16.60;99.90;;;;;;5045820;28;20849;-80
2023/06/02 05:22:21;;;;;;;5.00;4.53;;;16.60;99.90;;;;;;5044017;28;20975;-80
2023/06/02 05:24:48;;;;;;;5.23;4.73;;;16.80;99.90;;;;;;5032581;28;20497;-80
2023/06/02 05:27:16;;;;;;;6.37;5.77;;;16.90;99.90;;;;;;5038687;28;20473;-80
2023/06/02 05:29:43;;;;;;;5.23;4.83;;;17.00;99.90;;;;;;5046078;28;20441;-80
2023/06/02 05:32:11;;;;;;;6.43;4.37;;;16.80;99.90;;;;;;5043520;28;20516;-81
2023/06/02 05:34:39;;;;;;;5.07;4.67;;;16.80;99.90;;;;;;5040782;28;20441;-81
2023/06/02 05:37:06;;;;;;;3.70;3.50;;;17.00;99.90;;;;;;5042441;28;20488;-82
2023/06/02 05:39:33;;;;;;;4.00;3.60;;;17.20;99.90;;;;;;5042798;28;20443;-79
2023/06/02 05:42:00;;;;;;;3.90;3.60;;;17.50;99.40;;;;;;5045383;28;20468;-79
2023/06/02 05:44:28;;;;;;;5.77;3.40;;;17.70;99.90;;;;;;5036034;28;20535;-81
2023/06/02 05:46:55;;;;;;;3.53;2.97;;;17.80;99.90;;;;;;5030672;28;20646;-81
2023/06/02 05:49:22;;;;;;;3.50;3.20;;;17.90;97.20;;;;;;5037899;28;20442;-82
2023/06/02 05:51:49;;;;;;;5.50;4.03;;;18.10;95.10;;;;;;5034448;28;20486;-81
2023/06/02 05:54:16;;;;;;;4.13;3.07;;;18.20;94.10;;;;;;5037698;28;21049;-80
2023/06/02 05:56:43;;;;;;;3.47;3.17;;;18.20;92.90;;;;;;5025253;28;20949;-82
2023/06/02 05:59:10;;;;;;;3.03;2.73;;;18.30;91.30;;;;;;5042609;28;20545;-81
2023/06/02 06:01:38;;;;;;;7.37;2.97;;;18.40;92.90;;;;;;5028993;28;20559;-80
2023/06/02 06:04:05;;;;;;;3.63;2.27;;;18.40;92.10;;;;;;5035799;28;20454;-80
2023/06/02 06:06:32;;;;;;;3.00;2.17;;;18.50;90.20;;;;;;5041230;28;21195;-78
2023/06/02 06:08:59;;;;;;;2.70;2.50;;;18.50;84.50;;;;;;5045388;28;20441;-78
2023/06/02 06:11:26;;;;;;;4.27;3.03;;;18.60;86.00;;;;;;5044665;28;20525;-81
2023/06/02 06:13:53;;;;;;;3.17;2.57;;;18.90;84.00;;;;;;5041851;28;20485;-81
2023/06/02 06:16:20;;;;;;;3.73;2.63;;;18.80;82.30;;;;;;5037936;28;20473;-79
2023/06/02 06:18:49;;;;;;;3.27;2.20;;;19.00;80.90;;;;;;5035952;28;21222;-82
2023/06/02 06:21:16;;;;;;;3.30;3.10;;;19.10;79.10;;;;;;5036652;28;20450;-81
2023/06/02 06:23:43;;;;;;;3.20;2.57;;;19.20;79.10;;;;;;5026372;28;21039;-80
2023/06/02 06:26:10;;;;;;;4.60;3.27;;;19.50;79.70;;;;;;5040316;28;20471;-83
2023/06/02 06:28:37;;;;;;;2.50;2.30;;;19.50;80.10;;;;;;5042670;28;20872;-84
2023/06/02 06:31:04;;;;;;;3.43;2.73;;;19.50;79.70;;;;;;5039216;28;20547;-82
2023/06/02 06:33:31;;;;;;;4.37;3.20;;;19.50;77.70;;;;;;5042158;28;20468;-81
2023/06/02 06:35:59;;;;;;;3.00;2.60;;;19.70;78.60;;;;;;5038195;28;20494;-79
2023/06/02 06:38:26;;;;;;;3.83;3.50;;;19.70;79.00;;;;;;5036002;28;20507;-80
2023/06/02 06:40:53;;;;;;;5.03;3.73;;;19.70;79.20;;;;;;5043798;28;20472;-81
2023/06/02 06:43:20;;;;;;;3.63;2.60;;;19.90;78.40;;;;;;5044126;28;20469;-79
2023/06/02 06:45:47;;;;;;;3.20;3.00;;;20.00;77.90;;;;;;5046800;28;21205;-81
2023/06/02 06:48:14;;;;;;;3.70;3.13;;;20.20;76.90;;;;;;5041685;28;20497;-79
2023/06/02 06:50:41;;;;;;;4.80;2.83;;;20.00;78.00;;;;;;5046089;28;20874;-81
2023/06/02 06:53:11;;;;;;;2.93;2.67;;;20.10;79.30;;;;;;5045404;28;20454;-81
2023/06/02 06:55:38;;;;;;;5.40;2.67;;;20.40;78.50;;;;;;5038948;28;20895;-80
2023/06/02 06:58:05;;;;;;;4.80;2.80;;;20.10;80.60;;;;;;5040636;28;20449;-80
2023/06/02 07:00:32;;;;;;;4.23;3.40;;;20.20;78.90;;;;;;5045485;28;20463;-80
2023/06/02 07:02:59;;;;;;;4.63;3.30;;;20.20;80.00;;;;;;5039176;28;20507;-80
2023/06/02 07:05:26;;;;;;;3.40;3.13;;;20.30;82.20;;;;;;5037414;28;20450;-81
2023/06/02 07:07:53;;;;;;;4.37;3.30;;;20.50;75.50;;;;;;5045827;28;20471;-81
2023/06/02 07:10:22;;;;;;;2.87;2.40;;;20.60;80.70;;;;;;5043386;28;20515;-79
2023/06/02 07:12:49;;;;;;;3.67;3.37;;;20.70;75.60;;;;;;5047119;28;21213;-81
2023/06/02 07:15:16;;;;;;;3.37;2.93;;;21.20;72.80;;;;;;5047950;28;20511;-79
2023/06/02 07:17:43;;;;;;;4.60;3.20;;;21.20;73.10;;;;;;5037512;28;20446;-79
2023/06/02 07:20:12;;;;;;;3.10;2.80;;;21.20;71.40;;;;;;5036467;28;20503;-80
2023/06/02 07:22:39;;;;;;;6.70;3.00;;;21.40;71.20;;;;;;5033236;28;20532;-81
2023/06/02 07:25:07;;;;;;;7.10;2.53;;;21.70;72.00;;;;;;5047156;28;20464;-81
2023/06/02 07:27:36;;;;;;;2.93;2.73;;;21.90;61.80;;;;;;5044376;28;20553;-79
2023/06/02 07:30:04;;;;;;;2.70;2.50;;;21.60;65.90;;;;;;5042694;28;20493;-80
2023/06/02 07:32:31;;;;;;;2.80;2.17;;;21.00;67.40;;;;;;5042181;28;20535;-79
2023/06/02 07:34:58;;;;;;;3.50;2.80;;;21.50;68.80;;;;;;5043914;28;20473;-81
2023/06/02 07:37:25;;;;;;;2.70;2.47;;;21.60;66.00;;;;;;5047771;28;20553;-81
2023/06/02 07:39:52;;;;;;;3.63;2.40;;;21.90;64.00;;;;;;5038694;28;20527;-79
2023/06/02 07:42:21;;;;;;;2.90;2.70;;;21.70;65.20;;;;;;5037665;28;20488;-81
2023/06/02 07:44:49;;;;;;;3.60;2.43;;;21.70;63.80;;;;;;5039293;28;20615;-80
2023/06/02 07:47:16;;;;;;;2.77;2.57;;;21.40;65.50;;;;;;5040157;28;20550;-88
2023/06/02 07:49:43;;;;;;;2.73;2.53;;;21.70;66.10;;;;;;5043665;28;20465;-81
2023/06/02 07:52:11;;;;;;;2.60;2.40;;;21.80;68.90;;;;;;5043539;28;20492;-81
2023/06/02 07:54:38;;;;;;;5.67;3.50;;;22.00;70.40;;;;;;5045589;28;20473;-83
2023/06/02 07:57:05;;;;;;;4.20;2.80;;;22.10;69.00;;;;;;5037285;28;20501;-81
2023/06/02 07:59:32;;;;;;;3.17;2.97;;;22.50;68.60;;;;;;5037756;28;20567;-80
2023/06/02 08:02:03;;;;;;;3.40;2.37;;;22.50;62.40;;;;;;5037011;28;21354;-79
2023/06/02 08:04:30;;;;;;;2.33;2.13;;;22.60;63.30;;;;;;5041441;28;20457;-82
2023/06/02 08:06:57;;;;;;;3.87;2.83;;;22.20;63.00;;;;;;5039802;28;20470;-82
2023/06/02 08:09:25;;;;;;;3.50;2.50;;;22.10;67.60;;;;;;5038440;28;20518;-82
2023/06/02 08:11:52;;;;;;;3.20;2.90;;;21.90;63.30;;;;;;5042379;28;20536;-80
2023/06/02 08:14:19;;;;;;;3.67;3.37;;;22.20;66.50;;;;;;5031591;28;20446;-79
2023/06/02 08:16:46;;;;;;;3.43;3.13;;;22.70;63.40;;;;;;5046311;28;20457;-80
2023/06/02 08:19:17;;;;;;;3.33;3.03;;;22.60;65.40;;;;;;5046704;28;21138;-80
2023/06/02 08:21:44;;;;;;;4.70;3.50;;;22.80;66.60;;;;;;5047040;28;20465;-79
2023/06/02 08:24:11;;;;;;;6.10;3.53;;;23.00;67.60;;;;;;5048081;28;20472;-79
2023/06/02 08:26:39;;;;;;;3.70;3.23;;;23.00;62.40;;;;;;5047474;28;20493;-82
2023/06/02 08:29:08;;;;;;;3.80;3.40;;;23.10;65.20;;;;;;5045151;28;21005;-80
2023/06/02 08:31:36;;;;;;;3.77;3.23;;;23.10;62.90;;;;;;5046667;28;20488;-80
2023/06/02 08:34:04;;;;;;;3.40;3.10;;;23.00;65.50;;;;;;5040762;28;20436;-80
2023/06/02 08:36:33;;;;;;;4.87;3.60;;;23.40;64.70;;;;;;5038589;28;21161;-82
2023/06/02 08:39:06;;;;;;;4.00;3.70;;;23.30;59.80;;;;;;5047964;28;20459;-80
2023/06/02 08:41:37;;;;;;;4.23;3.73;;;23.40;64.60;;;;;;5047506;28;20924;-82
2023/06/02 08:44:04;;;;;;;5.33;3.87;;;23.60;62.40;;;;;;5046269;28;20609;-79
2023/06/02 08:46:32;;;;;;;7.00;3.17;;;23.10;61.60;;;;;;5006909;28;20506;-82
2023/06/02 08:49:00;;;;;;;4.17;3.47;;;23.00;61.60;;;;;;5002973;28;20439;-81
2023/06/02 08:51:27;;;;;;;4.30;3.80;;;23.20;61.20;;;;;;5005246;28;20463;-81
2023/06/02 08:53:55;;;;;;;4.07;3.77;;;23.40;63.90;;;;;;5001897;28;20495;-80
2023/06/02 08:56:22;;;;;;;3.80;3.20;;;23.30;62.10;;;;;;5004053;28;20491;-79
2023/06/02 08:58:49;;;;;;;4.83;3.63;;;23.30;63.20;;;;;;5002621;28;20463;-79
2023/06/02 09:01:16;;;;;;;3.73;3.43;;;23.30;66.40;;;;;;4995088;28;20445;-80
2023/06/02 09:03:46;;;;;;;4.03;3.73;;;23.60;66.90;;;;;;4999472;28;20456;-79
2023/06/02 09:06:21;;;;;;;4.50;4.20;;;23.70;67.70;;;;;;4995104;28;20466;-81
2023/06/02 09:08:57;;;;;;;3.80;3.50;;;23.60;65.30;;;;;;4996376;28;20469;-81
2023/06/02 09:11:25;;;;;;;4.83;4.23;;;23.90;63.90;;;;;;5004930;28;20447;-81
2023/06/02 09:13:53;;;;;;;3.60;3.30;;;23.60;61.10;;;;;;4996088;28;20522;-80
2023/06/02 09:16:21;;;;;;;3.47;3.27;;;23.40;58.90;;;;;;5000227;28;20986;-81
2023/06/02 09:18:58;;;;;;;6.20;3.60;;;23.70;65.20;;;;;;4994898;28;20822;-82
2023/06/02 09:21:27;;;;;;;4.20;3.90;;;23.60;61.60;;;;;;4999627;28;20476;-80
2023/06/02 09:23:56;;;;;;;4.30;3.30;;;23.60;67.60;;;;;;4992115;28;20464;-80
2023/06/02 09:26:25;;;;;;;3.87;3.47;;;24.20;67.40;;;;;;5001320;28;20455;-85
2023/06/02 09:29:03;;;;;;;4.60;3.87;;;24.20;64.40;;;;;;4991836;28;20448;-81
2023/06/02 09:31:44;;;;;;;3.40;3.07;;;24.50;59.40;;;;;;4998154;28;20484;-80
2023/06/02 09:34:11;;;;;;;3.87;3.40;;;24.30;62.60;;;;;;4996139;28;20457;-82
2023/06/02 09:36:38;;;;;;;3.70;3.40;;;24.20;57.40;;;;;;4994449;28;20437;-80
2023/06/02 09:39:08;;;;;;;4.47;3.80;;;24.00;59.10;;;;;;4998702;28;20450;-80
2023/06/02 09:41:35;;;;;;;3.80;3.50;;;24.10;62.60;;;;;;4995630;28;20445;-81
2023/06/02 09:44:04;;;;;;;4.03;3.57;;;24.10;60.50;;;;;;5001321;28;20505;-80
2023/06/02 09:46:45;;;;;;;3.63;3.33;;;24.10;64.30;;;;;;4999860;28;20445;-81
2023/06/02 09:49:12;;;;;;;6.27;3.50;;;24.20;61.20;;;;;;5001955;28;20452;-80
2023/06/02 09:51:40;;;;;;;3.43;3.13;;;24.30;59.10;;;;;;4995091;28;20467;-80
2023/06/02 09:54:09;;;;;;;4.40;4.00;;;24.60;60.00;;;;;;4988136;28;20984;-81
2023/06/02 09:56:37;;;;;;;3.20;2.93;;;25.20;59.90;;;;;;4988306;28;21180;-81
2023/06/02 09:59:06;;;;;;;6.00;3.87;;;25.40;62.90;;;;;;5000434;28;20472;-81
2023/06/02 10:01:33;;;;;;;4.20;3.60;;;25.20;55.90;;;;;;5001666;28;20465;-81
2023/06/02 10:04:00;;;;;;;5.57;3.67;;;24.70;57.40;;;;;;4990019;28;20452;-81
2023/06/02 10:06:44;;;;;;;3.40;3.10;;;24.40;56.40;;;;;;4994323;28;20463;-80
2023/06/02 10:09:24;;;;;;;3.90;3.57;;;24.60;56.00;;;;;;4988689;28;20446;-81
2023/06/02 10:12:05;;;;;;;3.93;3.40;;;25.00;57.30;;;;;;4988844;28;20461;-80
2023/06/02 10:14:48;;;;;;;4.00;3.70;;;25.10;58.90;;;;;;4995876;28;20450;-82
2023/06/02 10:17:24;;;;;;;4.33;3.63;;;25.60;58.70;;;;;;4999201;28;20936;-80
2023/06/02 10:20:20;;;;;;;3.50;3.30;;;25.50;59.50;;;;;;5006435;28;20485;-80
2023/06/02 10:23:14;;;;;;;3.70;3.40;;;25.20;57.00;;;;;;5008275;28;20476;-82
2023/06/02 10:25:57;;;;;;;4.20;3.30;;;25.00;55.60;;;;;;5002197;28;20446;-80
2023/06/02 10:28:27;;;;;;;4.97;4.50;;;25.10;61.60;;;;;;4991433;28;20833;-81
2023/06/02 10:31:07;;;;;;;4.43;4.13;;;25.20;54.00;;;;;;4994206;28;20541;-80
2023/06/02 10:33:47;;;;;;;4.63;4.23;;;25.60;57.00;;;;;;4996171;28;20503;-80
2023/06/02 10:36:17;;;;;;;4.10;3.80;;;25.80;58.70;;;;;;4992926;28;20474;-81
2023/06/02 10:38:45;;;;;;;4.40;4.00;;;25.80;53.60;;;;;;5003503;28;20447;-81
2023/06/02 10:41:16;;;;;;;3.73;3.50;;;25.70;52.60;;;;;;5002880;28;20456;-80
2023/06/02 10:44:23;;;;;;;4.93;4.53;;;25.80;55.10;;;;;;5007454;28;20544;-80
2023/06/02 10:47:35;;;;;;;4.10;3.70;;;25.80;51.90;;;;;;4995468;28;20484;-80
2023/06/02 10:50:04;;;;;;;3.77;3.43;;;25.90;56.70;;;;;;5002585;28;20452;-80
2023/06/02 10:52:32;;;;;;;3.93;3.60;;;26.00;56.90;;;;;;5001772;28;20900;-80
2023/06/02 10:55:28;;;;;;;3.97;3.77;;;25.70;55.40;;;;;;5003875;28;20955;-80
2023/06/02 10:57:57;;;;;;;5.43;3.97;;;26.00;59.50;;;;;;5006829;28;20507;-81
2023/06/02 11:00:45;;;;;;;5.13;4.23;;;26.00;57.00;;;;;;5005167;28;20501;-80
2023/06/02 11:03:35;;;;;;;9.67;4.60;;;26.20;56.30;;;;;;5002538;28;20508;-80
2023/06/02 11:06:19;;;;;;;4.50;4.20;;;26.50;56.70;;;;;;4998497;28;20440;-80
2023/06/02 11:08:51;;;;;;;5.33;2.87;;;26.30;53.40;;;;;;4995186;28;20491;-80
2023/06/02 11:11:58;;;;;;;5.10;3.30;;;26.20;55.50;;;;;;4995844;28;21108;-80
2023/06/02 11:14:26;;;;;;;4.03;3.63;;;26.20;53.00;;;;;;5001056;28;21119;-82
2023/06/02 11:17:29;;;;;;;6.03;3.50;;;26.40;53.90;;;;;;5006700;28;20531;-79
2023/06/02 11:19:57;;;;;;;5.00;4.03;;;26.40;53.80;;;;;;4984928;28;20512;-80
2023/06/02 11:22:24;;;;;;;7.23;4.17;;;26.20;54.60;;;;;;4984548;28;20534;-80
2023/06/02 11:24:52;;;;;;;4.70;3.93;;;26.30;53.70;;;;;;4997384;28;20469;-80
2023/06/02 11:27:19;;;;;;;3.70;3.40;;;26.20;56.00;;;;;;5005054;28;20477;-83
2023/06/02 11:30:04;;;;;;;4.50;3.63;;;26.30;52.30;;;;;;5001890;28;20553;-80
2023/06/02 11:32:31;;;;;;;3.50;3.20;;;26.20;51.80;;;;;;4993857;28;21049;-80
2023/06/02 11:35:01;;;;;;;3.83;3.43;;;26.20;48.30;;;;;;5003053;28;20945;-82
2023/06/02 11:37:31;;;;;;;3.43;3.23;;;26.30;51.70;;;;;;5003483;28;20516;-81
2023/06/02 11:39:59;;;;;;;4.07;3.67;;;26.50;53.30;;;;;;5007414;28;20665;-81
2023/06/02 11:42:36;;;;;;;5.27;3.27;;;26.80;49.00;;;;;;5006352;28;20584;-82
2023/06/02 11:45:06;;;;;;;6.00;3.57;;;27.00;51.00;;;;;;5020712;28;20508;-81
2023/06/02 11:47:34;;;;;;;6.40;4.00;;;27.00;46.20;;;;;;5053979;28;20465;-83
2023/06/02 11:50:01;;;;;;;4.07;3.77;;;26.80;47.20;;;;;;5043468;28;20489;-79
2023/06/02 11:52:33;;;;;;;3.60;2.50;;;26.30;47.40;;;;;;5044042;28;20559;-80
2023/06/02 11:55:01;;;;;;;2.37;2.17;;;26.40;47.70;;;;;;5043080;28;20495;-78
2023/06/02 11:57:32;;;;;;;2.00;1.80;;;26.70;44.20;;;;;;5039893;28;20487;-79
2023/06/02 12:00:10;;;;;;;2.07;1.97;;;26.40;45.90;;;;;;5035203;28;20513;-80
2023/06/02 12:02:39;;;;;;;4.37;2.57;;;26.50;46.10;;;;;;5045517;28;20447;-79
2023/06/02 12:05:10;;;;;;;2.73;2.53;;;26.70;45.60;;;;;;5037979;28;20448;-79
2023/06/02 12:07:38;;;;;;;3.00;2.60;;;26.90;44.80;;;;;;5033937;28;20469;-79
2023/06/02 12:10:05;;;;;;;2.77;2.60;;;26.70;41.60;;;;;;5043501;28;20500;-79
2023/06/02 12:12:33;;;;;;;3.53;2.67;;;27.00;44.40;;;;;;5039708;28;20813;-80
2023/06/02 12:15:15;;;;;;;3.63;2.33;;;27.20;47.40;;;;;;5035600;28;20494;-82
2023/06/02 12:17:44;;;;;;;2.80;2.60;;;27.40;47.30;;;;;;5038812;28;20976;-83
2023/06/02 12:20:11;;;;;;;2.93;2.73;;;27.50;45.40;;;;;;5048336;28;20461;-80
2023/06/02 12:22:53;;;;;;;6.33;2.87;;;27.60;46.80;;;;;;5047801;28;20473;-80
2023/06/02 12:25:21;;;;;;;2.83;2.63;;;27.50;47.20;;;;;;5047479;28;20450;-84
2023/06/02 12:27:50;;;;;;;4.30;2.73;;;27.60;50.70;;;;;;5053379;28;20479;-80
2023/06/02 12:30:18;;;;;;;2.63;2.43;;;27.60;44.40;;;;;;5047833;28;20936;-81
2023/06/02 12:32:45;;;;;;;2.73;2.53;;;27.90;46.70;;;;;;5046652;28;20466;-81
2023/06/02 12:35:12;;;;;;;3.43;2.33;;;28.00;44.60;;;;;;5046023;28;20987;-80
2023/06/02 12:37:42;;;;;;;2.13;1.90;;;28.00;43.30;;;;;;5047270;28;20493;-81
2023/06/02 12:40:11;;;;;;;6.63;3.13;;;27.50;41.80;;;;;;5044465;28;20530;-83
2023/06/02 12:42:38;;;;;;;2.40;2.20;;;27.20;41.20;;;;;;5049940;28;20456;-82
2023/06/02 12:45:06;;;;;;;2.90;1.93;;;27.00;40.80;;;;;;5038815;28;20992;-82
2023/06/02 12:47:34;;;;;;;2.40;2.20;;;26.70;42.20;;;;;;5030999;28;21163;-80
2023/06/02 12:50:04;;;;;;;2.30;2.03;;;26.60;43.00;;;;;;5045479;28;21541;-80
2023/06/02 12:52:32;;;;;;;2.27;2.03;;;26.60;44.50;;;;;;5042362;28;20822;-80
2023/06/02 12:54:59;;;;;;;5.67;2.23;;;26.60;41.40;;;;;;5039540;28;20488;-80
2023/06/02 12:57:26;;;;;;;3.80;2.60;;;26.50;42.40;;;;;;5047016;28;20460;-81
2023/06/02 12:59:53;;;;;;;3.67;3.13;;;26.40;40.60;;;;;;5050125;28;21216;-82